createdAt,value
2019-02-04T00:01:24.770Z,2.27
2019-02-04T00:03:29.699Z,2.90
2019-02-04T00:05:33.669Z,1.50
2019-02-04T00:07:38.535Z,2.20
2019-02-04T00:09:42.975Z,2.47
2019-02-04T00:11:47.217Z,2.70
2019-02-04T00:13:51.707Z,3.13
2019-02-04T00:15:55.631Z,2.73
2019-02-04T00:17:59.752Z,3.30
2019-02-04T00:20:04.898Z,2.20
2019-02-04T00:22:09.104Z,1.90
2019-02-04T00:24:14.323Z,2.53
2019-02-04T00:26:19.579Z,2.67
2019-02-04T00:28:23.931Z,2.47
2019-02-04T00:30:29.564Z,2.40
2019-02-04T00:32:34.210Z,1.80
2019-02-04T00:34:38.362Z,2.50
2019-02-04T00:36:43.084Z,2.80
2019-02-04T00:38:48.167Z,1.47
2019-02-04T00:40:52.583Z,2.37
2019-02-04T00:42:58.463Z,2.23
2019-02-04T00:45:02.757Z,2.50
2019-02-04T00:47:07.532Z,3.20
2019-02-04T00:49:11.523Z,2.07
2019-02-04T00:51:16.027Z,3.33
2019-02-04T00:53:20.587Z,2.27
2019-02-04T00:55:24.516Z,1.90
2019-02-04T00:57:28.950Z,2.27
2019-02-04T00:59:34.207Z,2.37
2019-02-04T01:01:39.544Z,2.17
2019-02-04T01:03:44.641Z,2.77
2019-02-04T01:05:48.573Z,2.30
2019-02-04T01:07:53.071Z,2.83
2019-02-04T01:09:57.189Z,2.27
2019-02-04T01:12:01.667Z,2.37
2019-02-04T01:14:06.219Z,2.80
2019-02-04T01:16:10.872Z,2.60
2019-02-04T01:18:15.571Z,1.70
2019-02-04T01:20:23.643Z,1.93
2019-02-04T01:22:28.052Z,2.00
2019-02-04T01:24:31.938Z,2.30
2019-02-04T01:26:36.756Z,2.87
2019-02-04T01:28:41.618Z,2.23
2019-02-04T01:30:45.803Z,1.70
2019-02-04T01:32:50.734Z,1.90
2019-02-04T01:34:55.231Z,2.33
2019-02-04T01:36:59.745Z,2.80
2019-02-04T01:39:07.618Z,2.83
2019-02-04T01:41:12.042Z,2.90
2019-02-04T01:43:15.980Z,3.47
2019-02-04T01:45:20.675Z,3.20
2019-02-04T01:47:24.522Z,2.70
2019-02-04T01:49:28.428Z,2.77
2019-02-04T01:51:33.239Z,2.50
2019-02-04T01:53:37.423Z,2.57
2019-02-04T01:55:41.543Z,2.70
2019-02-04T01:57:47.487Z,2.73
2019-02-04T01:59:51.441Z,3.40
2019-02-04T02:01:56.755Z,2.97
2019-02-04T02:04:00.848Z,3.80
2019-02-04T02:06:05.074Z,3.30
2019-02-04T02:08:09.768Z,2.43
2019-02-04T02:10:19.289Z,2.80
2019-02-04T02:12:24.007Z,2.73
2019-02-04T02:14:28.177Z,3.03
2019-02-04T02:16:32.059Z,3.60
2019-02-04T02:18:37.039Z,2.40
2019-02-04T02:20:41.003Z,3.50
2019-02-04T02:22:45.282Z,2.63
2019-02-04T02:24:49.148Z,3.40
2019-02-04T02:26:53.341Z,3.30
2019-02-04T02:28:57.197Z,3.80
2019-02-04T02:31:02.211Z,3.90
2019-02-04T02:33:06.210Z,3.90
2019-02-04T02:35:11.064Z,3.43
2019-02-04T02:37:15.008Z,3.67
2019-02-04T02:39:22.119Z,3.20
2019-02-04T02:41:27.178Z,3.57
2019-02-04T02:43:31.655Z,3.00
2019-02-04T02:45:35.614Z,3.00
2019-02-04T02:47:40.590Z,4.07
2019-02-04T02:49:45.160Z,2.63
2019-02-04T02:51:49.384Z,2.60
2019-02-04T02:53:53.503Z,3.23
2019-02-04T02:55:57.871Z,2.17
2019-02-04T02:58:02.335Z,3.13
2019-02-04T03:00:09.341Z,3.17
2019-02-04T03:02:13.377Z,2.67
2019-02-04T03:04:18.640Z,2.90
2019-02-04T03:06:23.199Z,3.10
2019-02-04T03:08:27.140Z,3.00
2019-02-04T03:10:32.452Z,2.80
2019-02-04T03:12:36.723Z,3.50
2019-02-04T03:14:41.315Z,3.70
2019-02-04T03:16:45.905Z,3.03
2019-02-04T03:18:50.574Z,2.83
2019-02-04T03:20:54.771Z,3.33
2019-02-04T03:22:59.564Z,3.83
2019-02-04T03:25:05.367Z,3.17
2019-02-04T03:27:09.991Z,2.77
2019-02-04T03:29:14.712Z,3.00
2019-02-04T03:31:19.124Z,3.90
2019-02-04T03:33:23.327Z,3.80
2019-02-04T03:35:28.342Z,3.80
2019-02-04T03:37:32.643Z,3.70
2019-02-04T03:39:36.721Z,4.03
2019-02-04T03:41:40.835Z,3.77
2019-02-04T03:43:44.683Z,3.60
2019-02-04T03:45:48.603Z,4.00
2019-02-04T03:48:04.309Z,4.00
2019-02-04T03:50:00.586Z,3.93
2019-02-04T03:52:05.402Z,4.10
2019-02-04T03:54:09.454Z,3.70
2019-02-04T03:56:13.996Z,3.30
2019-02-04T03:58:19.023Z,3.50
2019-02-04T04:00:26.227Z,4.40
2019-02-04T04:02:30.168Z,4.80
2019-02-04T04:04:34.728Z,4.33
2019-02-04T04:06:38.776Z,4.40
2019-02-04T04:08:42.640Z,4.30
2019-02-04T04:10:48.105Z,4.73
2019-02-04T04:12:52.154Z,4.20
2019-02-04T04:14:56.379Z,4.23
2019-02-04T04:17:00.555Z,4.43
2019-02-04T04:19:06.812Z,4.83
2019-02-04T04:21:11.395Z,4.20
2019-02-04T04:23:15.249Z,4.60
2019-02-04T04:25:19.656Z,4.50
2019-02-04T04:27:24.108Z,5.47
2019-02-04T04:29:28.293Z,4.27
2019-02-04T04:31:32.545Z,5.20
2019-02-04T04:33:37.373Z,4.40
2019-02-04T04:35:42.562Z,4.93
2019-02-04T04:37:47.206Z,5.77
2019-02-04T04:39:51.149Z,4.90
2019-02-04T04:41:55.843Z,5.07
2019-02-04T04:44:00.324Z,5.33
2019-02-04T04:46:04.358Z,4.90
2019-02-04T04:48:09.139Z,4.50
2019-02-04T04:50:13.774Z,4.57
2019-02-04T04:52:20.383Z,4.70
2019-02-04T04:54:24.314Z,4.93
2019-02-04T04:56:28.896Z,5.20
2019-02-04T04:58:33.086Z,5.10
2019-02-04T05:00:37.540Z,4.67
2019-02-04T05:02:41.837Z,4.23
2019-02-04T05:04:46.379Z,5.03
2019-02-04T05:06:51.602Z,4.30
2019-02-04T05:08:56.497Z,4.90
2019-02-04T05:11:01.479Z,4.70
2019-02-04T05:13:06.203Z,4.60
2019-02-04T05:15:12.790Z,5.30
2019-02-04T05:17:17.108Z,5.53
2019-02-04T05:19:21.308Z,5.20
2019-02-04T05:21:25.246Z,5.23
2019-02-04T05:23:29.714Z,3.00
2019-02-04T05:28:27.712Z,4.70
2019-02-04T05:31:03.308Z,4.97
2019-02-04T05:33:16.120Z,4.27
2019-02-04T05:35:39.663Z,4.63
2019-02-04T05:43:21.052Z,4.00
2019-02-04T05:45:46.971Z,5.90
2019-02-04T05:48:22.479Z,4.80
2019-02-04T05:50:47.746Z,3.20
2019-02-04T05:53:00.792Z,2.27
2019-02-04T05:55:43.312Z,4.80
2019-02-04T05:57:59.479Z,4.70
2019-02-04T06:00:14.970Z,4.63
2019-02-04T06:02:31.553Z,4.53
2019-02-04T06:04:47.843Z,4.33
2019-02-04T06:07:03.678Z,3.60
2019-02-04T06:09:19.751Z,3.43
2019-02-04T06:11:36.575Z,4.50
2019-02-04T06:13:52.587Z,3.67
2019-02-04T06:16:08.277Z,4.23
2019-02-04T06:18:24.256Z,3.50
2019-02-04T06:20:39.631Z,1.70
2019-02-04T06:22:56.398Z,4.90
2019-02-04T06:25:12.820Z,1.30
2019-02-04T06:27:28.440Z,3.40
2019-02-04T06:29:44.139Z,4.50
2019-02-04T06:32:00.395Z,3.70
2019-02-04T06:34:16.497Z,3.90
2019-02-04T06:36:32.627Z,2.00
2019-02-04T06:38:48.280Z,3.87
2019-02-04T06:41:04.284Z,3.87
2019-02-04T06:43:20.096Z,3.97
2019-02-04T06:45:36.236Z,4.20
2019-02-04T06:47:52.736Z,1.93
2019-02-04T06:50:09.102Z,2.50
2019-02-04T06:52:25.611Z,3.63
2019-02-04T06:54:41.671Z,4.40
2019-02-04T06:56:57.884Z,4.30
2019-02-04T06:59:13.513Z,4.10
2019-02-04T07:01:30.560Z,5.57
2019-02-04T07:03:45.978Z,4.60
2019-02-04T07:06:01.532Z,3.00
2019-02-04T07:08:17.525Z,1.80
2019-02-04T07:10:34.051Z,3.30
2019-02-04T07:12:49.819Z,4.43
2019-02-04T07:15:05.303Z,4.47
2019-02-04T07:17:21.316Z,3.67
2019-02-04T07:19:36.951Z,4.37
2019-02-04T07:21:52.983Z,1.63
2019-02-04T07:24:09.231Z,4.70
2019-02-04T07:26:24.836Z,3.63
2019-02-04T07:28:41.180Z,2.07
2019-02-04T07:30:57.837Z,4.50
2019-02-04T07:33:13.621Z,3.60
2019-02-04T07:35:29.424Z,3.90
2019-02-04T07:37:45.584Z,2.80
2019-02-04T07:40:01.064Z,2.80
2019-02-04T07:42:17.166Z,4.23
2019-02-04T07:44:33.625Z,2.97
2019-02-04T07:46:49.862Z,3.77
2019-02-04T07:49:05.679Z,3.57
2019-02-04T07:51:21.707Z,5.10
2019-02-04T07:53:37.743Z,4.20
2019-02-04T07:55:54.018Z,3.57
2019-02-04T07:58:10.254Z,2.70
2019-02-04T08:00:26.565Z,4.80
2019-02-04T08:02:42.600Z,3.70
2019-02-04T08:04:58.540Z,2.90
2019-02-04T08:07:14.227Z,1.50
2019-02-04T08:09:30.222Z,3.50
2019-02-04T08:11:46.940Z,3.33
2019-02-04T08:14:02.838Z,4.40
2019-02-04T08:16:19.033Z,4.23
2019-02-04T08:18:34.960Z,4.43
2019-02-04T08:20:50.823Z,4.50
2019-02-04T08:23:07.428Z,5.80
2019-02-04T08:25:25.792Z,5.20
2019-02-04T08:27:41.897Z,2.80
2019-02-04T08:29:58.175Z,5.00
2019-02-04T08:32:14.320Z,3.37
2019-02-04T08:34:29.808Z,5.27
2019-02-04T08:36:46.457Z,4.57
2019-02-04T08:39:02.452Z,4.50
2019-02-04T08:41:17.982Z,4.17
2019-02-04T08:43:33.993Z,5.50
2019-02-04T08:45:49.975Z,6.87
2019-02-04T08:48:06.590Z,5.00
2019-02-04T08:50:22.403Z,4.40
2019-02-04T08:52:39.099Z,4.93
2019-02-04T08:54:54.888Z,6.33
2019-02-04T08:57:11.186Z,3.23
2019-02-04T08:59:26.968Z,7.03
2019-02-04T09:01:43.151Z,3.63
2019-02-04T09:03:59.385Z,7.10
2019-02-04T09:06:14.879Z,4.70
2019-02-04T09:08:31.104Z,3.97
2019-02-04T09:10:47.881Z,7.40
2019-02-04T09:13:03.498Z,6.03
2019-02-04T09:15:19.992Z,9.00
2019-02-04T09:17:36.628Z,8.63
2019-02-04T09:19:52.732Z,7.10
2019-02-04T09:22:08.467Z,5.43
2019-02-04T09:24:25.083Z,5.93
2019-02-04T09:26:41.468Z,5.40
2019-02-04T09:28:58.267Z,7.30
2019-02-04T09:31:14.183Z,4.90
2019-02-04T09:33:30.607Z,5.63
2019-02-04T09:35:46.239Z,8.30
2019-02-04T09:38:02.985Z,6.33
2019-02-04T09:40:19.203Z,4.77
2019-02-04T09:42:35.350Z,7.67
2019-02-04T09:44:51.904Z,5.63
2019-02-04T09:47:08.784Z,6.63
2019-02-04T09:49:24.976Z,6.60
2019-02-04T09:51:40.901Z,5.17
2019-02-04T09:53:56.989Z,7.30
2019-02-04T09:56:13.303Z,7.87
2019-02-04T09:58:28.791Z,5.97
2019-02-04T10:00:45.587Z,7.00
2019-02-04T10:03:01.942Z,6.00
2019-02-04T10:05:17.789Z,5.20
2019-02-04T10:07:39.415Z,7.40
2019-02-04T10:09:54.837Z,4.63
2019-02-04T10:12:10.479Z,5.23
2019-02-04T10:14:26.029Z,4.97
2019-02-04T10:16:41.607Z,5.80
2019-02-04T10:18:57.130Z,4.60
2019-02-04T10:21:13.200Z,7.90
2019-02-04T10:23:29.478Z,7.70
2019-02-04T10:25:45.827Z,7.47
2019-02-04T10:28:01.834Z,9.73
2019-02-04T10:30:17.357Z,6.43
2019-02-04T10:32:33.079Z,6.43
2019-02-04T10:34:49.406Z,5.50
2019-02-04T10:37:05.641Z,6.93
2019-02-04T10:39:21.609Z,5.73
2019-02-04T10:41:37.548Z,6.40
2019-02-04T10:43:53.455Z,5.97
2019-02-04T10:46:09.239Z,8.53
2019-02-04T10:48:24.984Z,5.70
2019-02-04T10:50:46.397Z,6.80
2019-02-04T10:52:59.601Z,4.37
2019-02-04T10:55:15.745Z,4.90
2019-02-04T10:57:40.290Z,6.23
2019-02-04T10:59:49.065Z,5.23
2019-02-04T11:02:05.403Z,4.70
2019-02-04T11:04:21.216Z,4.67
2019-02-04T11:06:37.805Z,4.80
2019-02-04T11:08:53.750Z,4.50
2019-02-04T11:11:08.267Z,4.83
2019-02-04T11:13:51.031Z,4.87
2019-02-04T11:16:14.474Z,4.70
2019-02-04T11:18:38.251Z,7.33
2019-02-04T11:21:01.652Z,4.00
2019-02-04T11:28:28.162Z,4.40
2019-02-04T11:30:53.183Z,5.13
2019-02-04T11:33:16.487Z,7.73
2019-02-04T11:35:40.111Z,5.00
2019-02-04T11:38:03.489Z,4.87
2019-02-04T11:43:37.275Z,5.97
2019-02-04T11:46:00.488Z,5.73
2019-02-04T11:48:23.748Z,6.77
2019-02-04T11:55:47.528Z,4.83
2019-02-04T11:58:11.311Z,5.00
2019-02-04T12:03:03.467Z,5.30
2019-02-04T12:05:26.801Z,4.70
2019-02-04T12:07:50.031Z,5.90
2019-02-04T12:13:10.684Z,5.87
2019-02-04T12:15:26.347Z,5.00
2019-02-04T12:17:42.509Z,4.30
2019-02-04T12:19:59.133Z,5.17
2019-02-04T12:22:15.049Z,4.50
2019-02-04T12:24:31.344Z,5.70
2019-02-04T12:26:47.401Z,3.90
2019-02-04T12:29:03.815Z,4.90
2019-02-04T12:31:19.803Z,5.17
2019-02-04T12:33:35.814Z,3.57
2019-02-04T12:35:51.831Z,4.07
2019-02-04T12:38:07.775Z,4.47
2019-02-04T12:40:23.535Z,3.27
2019-02-04T12:42:40.525Z,4.67
2019-02-04T12:44:56.864Z,4.97
2019-02-04T12:47:13.192Z,5.00
2019-02-04T12:49:29.632Z,6.13
2019-02-04T12:51:45.575Z,3.83
2019-02-04T12:54:01.563Z,3.63
2019-02-04T12:56:17.771Z,4.47
2019-02-04T12:58:33.255Z,5.33
2019-02-04T13:00:48.789Z,4.43
2019-02-04T13:03:04.696Z,3.90
2019-02-04T13:05:20.612Z,5.50
2019-02-04T13:07:36.387Z,4.20
2019-02-04T13:09:52.163Z,3.53
2019-02-04T13:12:09.155Z,4.80
2019-02-04T13:14:25.084Z,3.33
2019-02-04T13:16:41.856Z,3.23
2019-02-04T13:18:57.872Z,3.80
2019-02-04T13:21:13.741Z,4.60
2019-02-04T13:23:29.649Z,4.83
2019-02-04T13:25:46.211Z,4.57
2019-02-04T13:28:02.655Z,2.83
2019-02-04T13:30:18.479Z,3.60
2019-02-04T13:32:34.892Z,3.93
2019-02-04T13:34:50.431Z,4.97
2019-02-04T13:37:06.227Z,3.57
2019-02-04T13:39:22.217Z,3.77
2019-02-04T13:41:38.197Z,3.40
2019-02-04T13:43:53.989Z,2.97
2019-02-04T13:46:09.847Z,3.43
2019-02-04T13:48:26.295Z,3.27
2019-02-04T13:50:42.459Z,4.80
2019-02-04T13:52:57.913Z,3.63
2019-02-04T13:55:15.959Z,3.97
2019-02-04T13:57:31.622Z,4.17
2019-02-04T13:59:47.265Z,3.90
2019-02-04T14:02:03.994Z,5.00
2019-02-04T14:04:19.413Z,4.57
2019-02-04T14:06:35.584Z,3.80
2019-02-04T14:08:51.526Z,4.00
2019-02-04T14:11:05.748Z,4.27
2019-02-04T14:13:28.874Z,4.00
2019-02-04T14:15:51.960Z,2.43
2019-02-04T14:20:46.019Z,3.63
2019-02-04T14:23:09.201Z,3.00
2019-02-04T14:33:22.493Z,3.67
2019-02-04T14:38:30.756Z,2.23
2019-02-04T14:40:53.948Z,3.00
2019-02-04T14:43:19.296Z,2.07
2019-02-04T14:46:01.613Z,3.63
2019-02-04T14:48:30.101Z,4.07
2019-02-04T14:51:12.371Z,3.63
2019-02-04T14:53:54.625Z,4.00
2019-02-04T14:56:37.318Z,4.03
2019-02-04T14:59:21.738Z,2.70
2019-02-04T15:02:04.122Z,4.60
2019-02-04T15:04:39.286Z,2.43
2019-02-04T15:07:21.579Z,4.20
2019-02-04T15:10:04.282Z,2.00
2019-02-04T15:12:47.034Z,3.50
2019-02-04T15:15:29.390Z,3.53
2019-02-04T15:18:24.079Z,3.30
2019-02-04T15:21:06.340Z,2.80
2019-02-04T15:23:33.913Z,3.50
2019-02-04T15:26:16.612Z,1.50
2019-02-04T15:28:59.623Z,2.47
2019-02-04T15:31:42.341Z,3.13
2019-02-04T15:34:25.246Z,3.57
2019-02-04T15:42:46.450Z,3.87
2019-02-04T15:45:28.805Z,4.00
2019-02-04T15:48:11.258Z,2.97
2019-02-04T15:50:54.066Z,2.57
2019-02-04T15:53:18.166Z,2.63
2019-02-04T15:55:41.896Z,2.17
2019-02-04T15:58:06.174Z,3.30
2019-02-04T16:00:29.576Z,2.90
2019-02-04T16:02:52.808Z,2.33
2019-02-04T16:05:18.762Z,3.50
2019-02-04T16:07:42.039Z,3.03
2019-02-04T16:12:51.393Z,2.93
2019-02-04T16:15:34.512Z,3.30
2019-02-04T16:17:57.774Z,4.90
2019-02-04T16:20:41.117Z,3.67
2019-02-04T16:23:04.913Z,3.60
2019-02-04T16:25:28.323Z,2.63
2019-02-04T16:27:51.756Z,4.43
2019-02-04T16:30:34.407Z,3.23
2019-02-04T16:32:58.099Z,3.50
2019-02-04T16:35:21.918Z,2.57
2019-02-04T16:37:46.571Z,5.10
2019-02-04T16:43:01.537Z,2.47
2019-02-04T16:45:19.043Z,2.83
2019-02-04T16:47:35.290Z,2.40
2019-02-04T16:49:51.470Z,3.07
2019-02-04T16:52:06.827Z,3.97
2019-02-04T16:54:22.647Z,3.13
2019-02-04T16:56:38.873Z,3.97
2019-02-04T16:58:55.069Z,3.13
2019-02-04T17:01:10.995Z,3.27
2019-02-04T17:03:27.932Z,4.10
2019-02-04T17:05:43.802Z,3.03
2019-02-04T17:10:17.642Z,3.80
2019-02-04T17:12:33.540Z,4.37
2019-02-04T17:14:49.564Z,3.83
2019-02-04T17:17:05.277Z,3.83
2019-02-04T17:19:21.116Z,3.87
2019-02-04T17:21:37.362Z,2.67
2019-02-04T17:23:53.265Z,3.97
2019-02-04T17:26:09.840Z,4.10
2019-02-04T17:28:25.823Z,3.57
2019-02-04T17:30:42.364Z,3.20
2019-02-04T17:32:59.132Z,3.40
2019-02-04T17:35:14.641Z,4.07
2019-02-04T17:37:30.569Z,3.23
2019-02-04T17:39:46.092Z,2.80
2019-02-04T17:42:01.568Z,3.53
2019-02-04T17:44:17.637Z,5.30
2019-02-04T17:46:33.956Z,3.60
2019-02-04T17:48:49.573Z,2.50
2019-02-04T17:51:05.980Z,3.73
2019-02-04T17:53:21.372Z,3.90
2019-02-04T17:55:37.276Z,3.17
2019-02-04T17:57:53.135Z,5.00
2019-02-04T18:00:10.982Z,4.77
2019-02-04T18:02:27.228Z,4.20
2019-02-04T18:04:43.700Z,3.30
2019-02-04T18:06:59.872Z,3.43
2019-02-04T18:09:16.183Z,4.97
2019-02-04T18:11:32.038Z,4.70
2019-02-04T18:13:47.495Z,4.13
2019-02-04T18:16:03.963Z,3.83
2019-02-04T18:18:20.051Z,3.33
2019-02-04T18:20:36.243Z,2.70
2019-02-04T18:22:53.604Z,3.93
2019-02-04T18:25:09.581Z,3.00
2019-02-04T18:27:25.651Z,3.20
2019-02-04T18:29:42.427Z,2.97
2019-02-04T18:31:58.347Z,3.53
2019-02-04T18:34:14.663Z,2.30
2019-02-04T18:36:30.351Z,4.70
2019-02-04T18:38:46.151Z,3.63
2019-02-04T18:41:02.373Z,3.53
2019-02-04T18:43:18.344Z,4.60
2019-02-04T18:45:35.383Z,3.37
2019-02-04T18:47:50.760Z,3.60
2019-02-04T18:50:07.171Z,2.97
2019-02-04T18:52:23.127Z,3.90
2019-02-04T18:54:39.436Z,3.40
2019-02-04T18:56:55.196Z,2.73
2019-02-04T18:59:10.639Z,3.80
2019-02-04T19:01:27.179Z,3.20
2019-02-04T19:03:43.044Z,2.87
2019-02-04T19:05:59.379Z,3.17
2019-02-04T19:08:15.648Z,3.53
2019-02-04T19:10:31.215Z,3.53
2019-02-04T19:12:47.629Z,3.73
2019-02-04T19:15:03.524Z,2.70
2019-02-04T19:17:18.913Z,3.67
2019-02-04T19:19:34.545Z,3.57
2019-02-04T19:21:50.800Z,3.00
2019-02-04T19:24:09.668Z,2.87
2019-02-04T19:26:24.296Z,2.90
2019-02-04T19:28:39.655Z,3.87
2019-02-04T19:30:55.225Z,3.43
2019-02-04T19:33:11.412Z,4.37
2019-02-04T19:35:27.719Z,4.97
2019-02-04T19:37:44.274Z,3.07
2019-02-04T19:40:00.412Z,3.50
2019-02-04T19:42:17.847Z,2.27
2019-02-04T19:44:33.878Z,3.43
2019-02-04T19:46:49.406Z,2.73
2019-02-04T19:49:04.944Z,2.63
2019-02-04T19:51:21.699Z,3.10
2019-02-04T19:53:37.687Z,4.60
2019-02-04T19:55:53.915Z,2.10
2019-02-04T19:58:09.654Z,2.97
2019-02-04T20:00:25.802Z,3.00
2019-02-04T20:02:41.893Z,4.53
2019-02-04T20:04:57.300Z,3.60
2019-02-04T20:07:13.613Z,2.80
2019-02-04T20:09:30.443Z,4.17
2019-02-04T20:11:46.779Z,4.40
2019-02-04T20:14:03.308Z,3.63
2019-02-04T20:16:18.638Z,2.30
2019-02-04T20:18:34.851Z,4.20
2019-02-04T20:20:50.787Z,2.07
2019-02-04T20:23:06.717Z,3.80
2019-02-04T20:25:22.332Z,3.50
2019-02-04T20:27:37.906Z,3.87
2019-02-04T20:29:54.423Z,3.70
2019-02-04T20:32:10.034Z,2.80
2019-02-04T20:34:25.500Z,5.00
2019-02-04T20:36:41.423Z,3.63
2019-02-04T20:38:57.650Z,4.13
2019-02-04T20:41:13.432Z,5.07
2019-02-04T20:43:29.180Z,5.10
2019-02-04T20:45:43.951Z,3.77
2019-02-04T20:48:08.923Z,3.10
2019-02-04T20:52:58.253Z,4.10
2019-02-04T20:55:13.769Z,3.93
2019-02-04T20:57:30.577Z,3.20
2019-02-04T20:59:46.824Z,3.40
2019-02-04T21:02:02.763Z,3.80
2019-02-04T21:04:19.331Z,3.27
2019-02-04T21:06:36.115Z,5.27
2019-02-04T21:08:52.142Z,2.30
2019-02-04T21:11:08.136Z,4.10
2019-02-04T21:13:24.407Z,2.67
2019-02-04T21:15:40.421Z,4.03
2019-02-04T21:17:56.264Z,3.17
2019-02-04T21:20:12.985Z,3.63
2019-02-04T21:22:28.400Z,3.90
2019-02-04T21:24:56.059Z,2.60
2019-02-04T21:27:02.053Z,3.40
2019-02-04T21:29:18.975Z,2.50
2019-02-04T21:31:34.805Z,3.13
2019-02-04T21:33:51.447Z,3.03
2019-02-04T21:36:07.403Z,3.20
2019-02-04T21:38:25.531Z,4.40
2019-02-04T21:40:40.459Z,3.33
2019-02-04T21:42:55.876Z,5.20
2019-02-04T21:45:12.432Z,2.83
2019-02-04T21:47:28.362Z,5.17
2019-02-04T21:49:44.711Z,3.67
2019-02-04T21:52:00.999Z,3.20
2019-02-04T21:54:17.241Z,4.73
2019-02-04T21:56:32.983Z,3.00
2019-02-04T21:58:48.407Z,4.50
2019-02-04T22:01:03.918Z,4.60
2019-02-04T22:03:19.819Z,3.83
2019-02-04T22:05:36.187Z,4.50
2019-02-04T22:07:52.719Z,4.00
2019-02-04T22:10:08.632Z,4.70
2019-02-04T22:12:25.312Z,5.00
2019-02-04T22:14:41.959Z,3.83
2019-02-04T22:16:58.179Z,3.90
2019-02-04T22:19:13.601Z,3.23
2019-02-04T22:21:30.372Z,3.00
2019-02-04T22:23:46.398Z,3.60
2019-02-04T22:26:02.467Z,4.00
2019-02-04T22:28:17.820Z,5.33
2019-02-04T22:30:34.355Z,3.57
2019-02-04T22:32:49.985Z,3.23
2019-02-04T22:35:05.725Z,4.40
2019-02-04T22:37:22.339Z,3.93
2019-02-04T22:39:38.110Z,3.63
2019-02-04T22:41:53.548Z,3.50
2019-02-04T22:44:10.411Z,4.00
2019-02-04T22:46:26.689Z,4.97
2019-02-04T22:48:42.675Z,4.00
2019-02-04T22:50:58.511Z,3.70
2019-02-04T22:55:32.955Z,5.50
2019-02-04T22:57:48.443Z,5.03
2019-02-04T23:00:04.640Z,5.80
2019-02-04T23:02:21.032Z,5.93
2019-02-04T23:04:36.604Z,4.13
2019-02-04T23:06:52.655Z,6.00
2019-02-04T23:09:08.075Z,5.50
2019-02-04T23:11:24.695Z,6.83
2019-02-04T23:13:40.308Z,5.30
2019-02-04T23:15:56.551Z,5.50
2019-02-04T23:18:12.632Z,4.20
2019-02-04T23:20:28.684Z,2.90
2019-02-04T23:22:44.275Z,5.40
2019-02-04T23:25:00.399Z,4.83
2019-02-04T23:27:05.586Z,7.83
2019-02-04T23:29:09.531Z,6.23
2019-02-04T23:31:14.181Z,5.20
2019-02-04T23:33:18.085Z,5.63
2019-02-04T23:35:23.850Z,7.80
2019-02-04T23:37:29.052Z,5.03
2019-02-04T23:39:34.020Z,6.27
2019-02-04T23:41:38.782Z,6.47
2019-02-04T23:43:43.221Z,6.43
2019-02-04T23:45:47.774Z,5.37
2019-02-04T23:47:51.660Z,3.93
2019-02-04T23:49:56.310Z,4.63
2019-02-04T23:52:00.479Z,5.90
2019-02-04T23:54:05.964Z,4.13
2019-02-04T23:56:10.066Z,4.67
2019-02-04T23:58:13.958Z,5.40
